Flag for France

Past Weather in 42°38'27.7"N, 8°56'14.9"E, France — Yesterday and Last 2 Weeks

Currently: 68 °F. Sunny. (Weather station: Bastia Airport, France). See more current weather

Past Weather in 42°38'27.7"N, 8°56'14.9"E — Graph

°F

42°38'27.7"N, 8°56'14.9"E Temperature Yesterday

Maximum temperature yesterday: 73 °F (at 3:00 pm)
Minimum temperature yesterday: 57 °F (at 12:00 am)
Average temperature yesterday: 65 °F

High & Low Weather Summary for the Past Weeks

 TemperatureHumidityPressure
High79 °F (May 11, 2:30 pm)100% (May 6, 5:30 am)30.09 "Hg (May 6, 5:30 am)
Low50 °F (May 5, 4:30 am)26% (May 11, 4:00 pm)29.65 "Hg (May 16, 4:30 pm)
Average64 °F73%29.93 "Hg
* Reported May 4 7:00 pm — May 19 7:00 pm, 42°38'27.7"N, 8°56'14.9"E. Weather by CustomWeather, © 2024

Note: Actual official high and low records may vary slightly from our data, if they occured in-between our weather recording intervals... More about our weather records

42°38'27.7"N, 8°56'14.9"E Weather History for the Previous 24 Hours

Scroll right to see more
 ConditionsComfort  
Time TempWeatherWind HumidityBarometerVisibility
7:00 pm
Sun, May 19
70 °FPassing clouds.5 mph73%29.80 "HgN/A
6:30 pm70 °FPassing clouds.5 mph78%29.80 "HgN/A
6:00 pm70 °FSunny.8 mph78%29.80 "Hg10 mi
5:30 pm73 °FScattered clouds.7 mph61%29.80 "HgN/A
5:00 pm73 °FScattered clouds.6 mph57%29.83 "HgN/A
4:30 pm73 °FPartly sunny.7 mph61%29.83 "HgN/A
4:00 pm72 °FOvercast.8 mph69%29.83 "HgN/A
3:30 pm70 °FOvercast.9 mph78%29.86 "HgN/A
3:00 pm70 °FBroken clouds.10 mph78%29.86 "HgN/A
2:30 pm72 °FPartly sunny.9 mph69%29.86 "HgN/A
2:00 pm72 °FPartly sunny.9 mph69%29.86 "HgN/A
1:30 pm72 °FPartly sunny.9 mph69%29.86 "HgN/A
1:00 pm72 °FOvercast.8 mph69%29.86 "HgN/A
12:30 pm70 °FMore clouds than sun.9 mph73%29.86 "HgN/A
12:00 pm70 °FScattered clouds.9 mph73%29.86 "HgN/A
11:30 am70 °FPartly sunny.3 mph73%29.86 "HgN/A
11:00 am72 °FPartly sunny.5 mph73%29.86 "HgN/A
10:30 am70 °FScattered clouds.3 mph73%29.86 "HgN/A
10:00 am68 °FMore clouds than sun.2 mph78%29.89 "HgN/A
9:30 am66 °FOvercast.1 mph83%29.89 "HgN/A
9:00 am64 °FPartly sunny.1 mph88%29.89 "HgN/A
8:30 am61 °FPartly sunny.2 mph88%29.89 "HgN/A
8:00 am61 °FPartly sunny.3 mph88%29.89 "HgN/A
7:30 am59 °FSunny.3 mph88%29.89 "Hg10 mi
7:00 am57 °FSunny.2 mph94%29.86 "Hg10 mi
6:30 am57 °FSunny.2 mph88%29.86 "Hg10 mi
6:00 am57 °FSunny.3 mph88%29.86 "Hg10 mi
5:30 am57 °FClear.5 mph88%29.86 "Hg10 mi
5:00 am57 °FClear.1 mph88%29.86 "Hg10 mi
4:30 am59 °FPassing clouds.5 mph88%29.86 "HgN/A
4:00 am57 °FPassing clouds.6 mph94%29.86 "HgN/A
3:30 am57 °FClear.2 mph94%29.86 "Hg10 mi
3:00 am59 °FPassing clouds.5 mph94%29.86 "HgN/A
2:30 am59 °FPassing clouds.3 mph94%29.86 "HgN/A
2:00 am59 °FClear.3 mph94%29.86 "Hg10 mi
1:30 am59 °FPassing clouds.3 mph94%29.89 "Hg5 mi
1:00 am59 °FClear.3 mph94%29.89 "Hg6 mi
12:30 am59 °FPassing clouds.2 mph94%29.89 "Hg4 mi
12:00 am61 °FPassing clouds.5 mph94%29.86 "HgN/A
11:30 pm
Sat, May 18
61 °FPassing clouds.2 mph94%29.86 "HgN/A
11:00 pm63 °FPassing clouds.3 mph94%29.89 "HgN/A
10:30 pm66 °FMostly cloudy.2 mph88%29.89 "HgN/A
10:00 pm66 °FOvercast.2 mph88%29.89 "HgN/A
9:30 pm66 °FPassing clouds.5 mph88%29.89 "HgN/A
9:00 pm66 °FPassing clouds.3 mph88%29.86 "HgN/A
8:30 pm66 °FPassing clouds.5 mph83%29.86 "HgN/A
8:00 pm66 °FPassing clouds.5 mph83%29.86 "HgN/A
Weather by CustomWeather, © 2024

See weather overview